메인 페이지
METAR-TAF:

METAR-TAF

공항 :

리우데자네이루, 리우데자네이루, 브라질

위도: 22-59S, 경도: 043-22W, 고도: 3m

현재 날씨관측

예보는 9 시간 30분 전, 00:00시(UTC)에 발표되었습니다.
북서1kt
온도 27°C
습도 89%
기압 1011 hPa
시정 10km 이상
고도 4000ft 상공 구름 보통

METAR: SBJR 010000Z 31001KT 9999 SCT040 27/25 Q1011

시각: 07:30 (09:30 UTC)


TAF: 누락

4,000개 이상의 공항 관측 자료 및 예보 (METAR 및 TAF 보고).

지도상에서 검색 가능한 기상관측소가 노란 점과 빨간 점으로 표시되어 있습니다.

기상관측소 명을 보려면 표시 위로 마우스를 이동하세요.

날씨 관측과 예보를 보려면 클릭하세요.

지도 변경 : 확대하려면 엑스 표시가 있는 녹색 버튼, 축소하려면 빼기 표시가 있는 녹색 버튼, 다음 페이지의 지도를 보려면 녹색 화살표를 클릭하세요.


METAR-TAF: